sensor_id;sensor_type;location;lat;lon;timestamp;P1;durP1;ratioP1;P2;durP2;ratioP2
7917;SDS011;4004;42.624;23.386;2023-02-23T00:01:10;7.03;;;5.67;;
7917;SDS011;4004;42.624;23.386;2023-02-23T00:03:39;14.97;;;8.77;;
7917;SDS011;4004;42.624;23.386;2023-02-23T00:06:06;11.10;;;7.83;;
7917;SDS011;4004;42.624;23.386;2023-02-23T00:08:33;8.40;;;6.20;;
7917;SDS011;4004;42.624;23.386;2023-02-23T00:11:01;6.40;;;5.33;;
7917;SDS011;4004;42.624;23.386;2023-02-23T00:13:29;8.43;;;6.30;;
7917;SDS011;4004;42.624;23.386;2023-02-23T00:15:57;7.57;;;5.93;;
7917;SDS011;4004;42.624;23.386;2023-02-23T00:18:23;8.03;;;6.00;;
7917;SDS011;4004;42.624;23.386;2023-02-23T00:20:56;7.93;;;6.47;;
7917;SDS011;4004;42.624;23.386;2023-02-23T00:23:23;8.07;;;6.17;;
7917;SDS011;4004;42.624;23.386;2023-02-23T00:25:51;10.43;;;6.67;;
7917;SDS011;4004;42.624;23.386;2023-02-23T00:28:18;8.30;;;6.00;;
7917;SDS011;4004;42.624;23.386;2023-02-23T00:30:45;7.23;;;6.07;;
7917;SDS011;4004;42.624;23.386;2023-02-23T00:33:12;9.40;;;7.77;;
7917;SDS011;4004;42.624;23.386;2023-02-23T00:35:39;11.33;;;6.93;;
7917;SDS011;4004;42.624;23.386;2023-02-23T00:38:08;8.63;;;7.23;;
7917;SDS011;4004;42.624;23.386;2023-02-23T00:40:38;10.23;;;7.20;;
7917;SDS011;4004;42.624;23.386;2023-02-23T00:43:05;8.50;;;6.57;;
7917;SDS011;4004;42.624;23.386;2023-02-23T00:45:32;12.70;;;7.40;;
7917;SDS011;4004;42.624;23.386;2023-02-23T00:48:00;8.43;;;6.97;;
7917;SDS011;4004;42.624;23.386;2023-02-23T00:50:27;9.33;;;7.20;;
7917;SDS011;4004;42.624;23.386;2023-02-23T00:52:55;10.07;;;6.70;;
7917;SDS011;4004;42.624;23.386;2023-02-23T00:55:25;7.67;;;6.30;;
7917;SDS011;4004;42.624;23.386;2023-02-23T00:57:51;10.07;;;7.13;;
7917;SDS011;4004;42.624;23.386;2023-02-23T01:00:18;10.70;;;7.90;;
7917;SDS011;4004;42.624;23.386;2023-02-23T01:02:46;8.13;;;6.63;;
7917;SDS011;4004;42.624;23.386;2023-02-23T01:05:13;10.83;;;7.27;;
7917;SDS011;4004;42.624;23.386;2023-02-23T01:07:40;9.50;;;7.20;;
7917;SDS011;4004;42.624;23.386;2023-02-23T01:10:10;10.27;;;6.37;;
7917;SDS011;4004;42.624;23.386;2023-02-23T01:12:49;9.07;;;6.63;;
7917;SDS011;4004;42.624;23.386;2023-02-23T01:15:17;8.83;;;6.40;;
7917;SDS011;4004;42.624;23.386;2023-02-23T01:17:45;10.13;;;6.70;;
7917;SDS011;4004;42.624;23.386;2023-02-23T01:20:13;10.43;;;7.70;;
7917;SDS011;4004;42.624;23.386;2023-02-23T01:22:42;11.53;;;7.13;;
7917;SDS011;4004;42.624;23.386;2023-02-23T01:25:09;8.97;;;6.50;;
7917;SDS011;4004;42.624;23.386;2023-02-23T01:27:37;11.03;;;6.20;;
7917;SDS011;4004;42.624;23.386;2023-02-23T01:30:07;9.07;;;6.13;;
7917;SDS011;4004;42.624;23.386;2023-02-23T01:32:35;8.63;;;6.57;;
7917;SDS011;4004;42.624;23.386;2023-02-23T01:35:03;7.97;;;6.07;;
7917;SDS011;4004;42.624;23.386;2023-02-23T01:37:33;10.07;;;6.20;;
7917;SDS011;4004;42.624;23.386;2023-02-23T01:40:00;11.10;;;6.47;;
7917;SDS011;4004;42.624;23.386;2023-02-23T01:42:35;8.60;;;6.60;;
7917;SDS011;4004;42.624;23.386;2023-02-23T01:47:54;8.43;;;6.47;;
7917;SDS011;4004;42.624;23.386;2023-02-23T01:50:25;9.17;;;6.43;;
7917;SDS011;4004;42.624;23.386;2023-02-23T01:52:55;9.07;;;6.33;;
7917;SDS011;4004;42.624;23.386;2023-02-23T01:55:23;8.63;;;6.73;;
7917;SDS011;4004;42.624;23.386;2023-02-23T01:57:54;8.00;;;6.90;;
7917;SDS011;4004;42.624;23.386;2023-02-23T02:00:27;9.37;;;6.93;;
7917;SDS011;4004;42.624;23.386;2023-02-23T02:02:56;12.80;;;6.77;;
7917;SDS011;4004;42.624;23.386;2023-02-23T02:05:26;7.30;;;6.30;;
7917;SDS011;4004;42.624;23.386;2023-02-23T02:07:55;9.37;;;7.27;;
7917;SDS011;4004;42.624;23.386;2023-02-23T02:10:24;8.00;;;6.83;;
7917;SDS011;4004;42.624;23.386;2023-02-23T02:13:13;8.80;;;6.70;;
7917;SDS011;4004;42.624;23.386;2023-02-23T02:15:52;7.73;;;6.47;;
7917;SDS011;4004;42.624;23.386;2023-02-23T02:18:53;9.23;;;6.93;;
7917;SDS011;4004;42.624;23.386;2023-02-23T02:27:49;7.60;;;6.37;;
7917;SDS011;4004;42.624;23.386;2023-02-23T02:30:43;9.03;;;6.87;;
7917;SDS011;4004;42.624;23.386;2023-02-23T02:39:33;10.77;;;6.30;;
7917;SDS011;4004;42.624;23.386;2023-02-23T02:42:14;7.70;;;6.57;;
7917;SDS011;4004;42.624;23.386;2023-02-23T02:44:49;9.53;;;6.80;;
7917;SDS011;4004;42.624;23.386;2023-02-23T02:47:24;8.80;;;7.00;;
7917;SDS011;4004;42.624;23.386;2023-02-23T02:49:57;9.43;;;6.57;;
7917;SDS011;4004;42.624;23.386;2023-02-23T02:52:32;7.57;;;6.40;;
7917;SDS011;4004;42.624;23.386;2023-02-23T02:55:05;8.83;;;6.70;;
7917;SDS011;4004;42.624;23.386;2023-02-23T02:57:37;9.30;;;7.07;;
7917;SDS011;4004;42.624;23.386;2023-02-23T03:00:05;7.23;;;6.53;;
7917;SDS011;4004;42.624;23.386;2023-02-23T03:02:50;9.77;;;6.40;;
7917;SDS011;4004;42.624;23.386;2023-02-23T03:05:36;7.90;;;6.50;;
7917;SDS011;4004;42.624;23.386;2023-02-23T03:08:30;9.23;;;6.57;;
7917;SDS011;4004;42.624;23.386;2023-02-23T03:11:20;9.40;;;6.13;;
7917;SDS011;4004;42.624;23.386;2023-02-23T03:14:11;8.63;;;7.30;;
7917;SDS011;4004;42.624;23.386;2023-02-23T03:17:08;13.80;;;7.17;;
7917;SDS011;4004;42.624;23.386;2023-02-23T03:20:02;9.27;;;6.53;;
7917;SDS011;4004;42.624;23.386;2023-02-23T03:22:54;8.27;;;7.20;;
7917;SDS011;4004;42.624;23.386;2023-02-23T03:25:44;8.03;;;6.90;;
7917;SDS011;4004;42.624;23.386;2023-02-23T03:28:34;8.33;;;7.10;;
7917;SDS011;4004;42.624;23.386;2023-02-23T03:31:25;10.47;;;8.60;;
7917;SDS011;4004;42.624;23.386;2023-02-23T03:34:18;9.90;;;7.47;;
7917;SDS011;4004;42.624;23.386;2023-02-23T03:37:09;9.73;;;7.60;;
7917;SDS011;4004;42.624;23.386;2023-02-23T03:39:58;9.37;;;7.60;;
7917;SDS011;4004;42.624;23.386;2023-02-23T03:42:50;9.23;;;6.70;;
7917;SDS011;4004;42.624;23.386;2023-02-23T03:45:37;10.03;;;7.13;;
7917;SDS011;4004;42.624;23.386;2023-02-23T03:48:23;10.67;;;7.53;;
7917;SDS011;4004;42.624;23.386;2023-02-23T03:51:09;11.13;;;7.77;;
7917;SDS011;4004;42.624;23.386;2023-02-23T03:53:58;12.80;;;7.97;;
7917;SDS011;4004;42.624;23.386;2023-02-23T03:56:46;8.83;;;6.77;;
7917;SDS011;4004;42.624;23.386;2023-02-23T03:59:37;8.70;;;7.10;;
7917;SDS011;4004;42.624;23.386;2023-02-23T04:02:25;11.63;;;7.93;;
7917;SDS011;4004;42.624;23.386;2023-02-23T04:05:13;10.63;;;7.40;;
7917;SDS011;4004;42.624;23.386;2023-02-23T04:08:01;12.23;;;7.83;;
7917;SDS011;4004;42.624;23.386;2023-02-23T04:10:47;11.40;;;7.37;;
7917;SDS011;4004;42.624;23.386;2023-02-23T04:13:37;9.03;;;7.80;;
7917;SDS011;4004;42.624;23.386;2023-02-23T04:16:06;9.23;;;7.40;;
7917;SDS011;4004;42.624;23.386;2023-02-23T04:18:33;14.20;;;7.37;;
7917;SDS011;4004;42.624;23.386;2023-02-23T04:21:02;11.63;;;7.20;;
7917;SDS011;4004;42.624;23.386;2023-02-23T04:23:30;16.17;;;7.83;;
7917;SDS011;4004;42.624;23.386;2023-02-23T04:25:57;8.90;;;6.83;;
7917;SDS011;4004;42.624;23.386;2023-02-23T04:28:26;12.73;;;7.03;;
7917;SDS011;4004;42.624;23.386;2023-02-23T04:30:53;9.40;;;7.60;;
7917;SDS011;4004;42.624;23.386;2023-02-23T04:33:21;9.17;;;7.00;;
7917;SDS011;4004;42.624;23.386;2023-02-23T04:35:51;12.30;;;7.03;;
7917;SDS011;4004;42.624;23.386;2023-02-23T04:38:18;10.30;;;7.73;;
7917;SDS011;4004;42.624;23.386;2023-02-23T04:40:44;10.33;;;7.60;;
7917;SDS011;4004;42.624;23.386;2023-02-23T04:43:11;11.40;;;7.37;;
7917;SDS011;4004;42.624;23.386;2023-02-23T04:45:38;8.70;;;7.40;;
7917;SDS011;4004;42.624;23.386;2023-02-23T04:48:05;13.93;;;7.50;;
7917;SDS011;4004;42.624;23.386;2023-02-23T04:50:34;9.13;;;7.20;;
7917;SDS011;4004;42.624;23.386;2023-02-23T04:53:01;9.67;;;7.00;;
7917;SDS011;4004;42.624;23.386;2023-02-23T04:55:28;11.47;;;7.43;;
7917;SDS011;4004;42.624;23.386;2023-02-23T04:57:56;12.63;;;7.23;;
7917;SDS011;4004;42.624;23.386;2023-02-23T05:00:24;12.47;;;6.67;;
7917;SDS011;4004;42.624;23.386;2023-02-23T05:02:51;10.33;;;6.87;;
7917;SDS011;4004;42.624;23.386;2023-02-23T05:05:18;9.00;;;6.97;;
7917;SDS011;4004;42.624;23.386;2023-02-23T05:07:47;20.20;;;7.10;;
7917;SDS011;4004;42.624;23.386;2023-02-23T05:10:13;14.03;;;7.87;;
7917;SDS011;4004;42.624;23.386;2023-02-23T05:12:40;9.53;;;6.70;;
7917;SDS011;4004;42.624;23.386;2023-02-23T05:15:07;10.77;;;8.00;;
7917;SDS011;4004;42.624;23.386;2023-02-23T05:17:36;10.23;;;7.93;;
7917;SDS011;4004;42.624;23.386;2023-02-23T05:20:04;15.83;;;7.87;;
7917;SDS011;4004;42.624;23.386;2023-02-23T05:22:31;11.60;;;7.77;;
7917;SDS011;4004;42.624;23.386;2023-02-23T05:25:00;9.57;;;7.03;;
7917;SDS011;4004;42.624;23.386;2023-02-23T05:27:28;9.30;;;7.57;;
7917;SDS011;4004;42.624;23.386;2023-02-23T05:29:54;11.90;;;8.37;;
7917;SDS011;4004;42.624;23.386;2023-02-23T05:32:21;12.57;;;8.80;;
7917;SDS011;4004;42.624;23.386;2023-02-23T05:34:48;11.27;;;8.37;;
7917;SDS011;4004;42.624;23.386;2023-02-23T05:37:15;11.33;;;8.27;;
7917;SDS011;4004;42.624;23.386;2023-02-23T05:39:42;13.40;;;7.90;;
7917;SDS011;4004;42.624;23.386;2023-02-23T05:42:10;9.70;;;7.07;;
7917;SDS011;4004;42.624;23.386;2023-02-23T05:44:36;10.93;;;7.33;;
7917;SDS011;4004;42.624;23.386;2023-02-23T05:47:03;9.57;;;7.27;;
7917;SDS011;4004;42.624;23.386;2023-02-23T05:49:30;10.13;;;6.87;;
7917;SDS011;4004;42.624;23.386;2023-02-23T05:51:57;11.07;;;7.73;;
7917;SDS011;4004;42.624;23.386;2023-02-23T05:54:23;9.17;;;7.37;;
7917;SDS011;4004;42.624;23.386;2023-02-23T05:56:50;9.37;;;7.50;;
7917;SDS011;4004;42.624;23.386;2023-02-23T05:59:18;11.40;;;7.30;;
7917;SDS011;4004;42.624;23.386;2023-02-23T06:01:45;13.33;;;7.67;;
7917;SDS011;4004;42.624;23.386;2023-02-23T06:04:12;9.10;;;7.17;;
7917;SDS011;4004;42.624;23.386;2023-02-23T06:06:39;13.97;;;7.50;;
7917;SDS011;4004;42.624;23.386;2023-02-23T06:09:05;11.00;;;7.20;;
7917;SDS011;4004;42.624;23.386;2023-02-23T06:11:32;10.03;;;7.10;;
7917;SDS011;4004;42.624;23.386;2023-02-23T06:13:59;10.73;;;7.43;;
7917;SDS011;4004;42.624;23.386;2023-02-23T06:16:27;14.53;;;8.10;;
7917;SDS011;4004;42.624;23.386;2023-02-23T06:18:54;16.50;;;11.27;;
7917;SDS011;4004;42.624;23.386;2023-02-23T06:21:20;9.33;;;7.50;;
7917;SDS011;4004;42.624;23.386;2023-02-23T06:23:47;12.00;;;6.60;;
7917;SDS011;4004;42.624;23.386;2023-02-23T06:26:14;13.27;;;7.90;;
7917;SDS011;4004;42.624;23.386;2023-02-23T06:28:41;9.70;;;6.70;;
7917;SDS011;4004;42.624;23.386;2023-02-23T06:31:07;11.40;;;6.00;;
7917;SDS011;4004;42.624;23.386;2023-02-23T06:33:35;7.20;;;5.67;;
7917;SDS011;4004;42.624;23.386;2023-02-23T06:36:02;12.23;;;6.70;;
7917;SDS011;4004;42.624;23.386;2023-02-23T06:38:29;10.33;;;7.30;;
7917;SDS011;4004;42.624;23.386;2023-02-23T06:40:56;12.83;;;7.10;;
7917;SDS011;4004;42.624;23.386;2023-02-23T06:43:23;11.70;;;7.43;;
7917;SDS011;4004;42.624;23.386;2023-02-23T06:45:50;10.00;;;7.03;;
7917;SDS011;4004;42.624;23.386;2023-02-23T06:48:16;14.67;;;7.07;;
7917;SDS011;4004;42.624;23.386;2023-02-23T06:50:44;12.60;;;7.90;;
7917;SDS011;4004;42.624;23.386;2023-02-23T06:53:11;12.60;;;7.77;;
7917;SDS011;4004;42.624;23.386;2023-02-23T06:55:38;12.37;;;7.43;;
7917;SDS011;4004;42.624;23.386;2023-02-23T06:58:04;15.43;;;6.83;;
7917;SDS011;4004;42.624;23.386;2023-02-23T07:00:32;10.03;;;6.60;;
7917;SDS011;4004;42.624;23.386;2023-02-23T07:02:58;10.47;;;6.57;;
7917;SDS011;4004;42.624;23.386;2023-02-23T07:05:25;8.97;;;6.10;;
7917;SDS011;4004;42.624;23.386;2023-02-23T07:07:53;15.07;;;6.70;;
7917;SDS011;4004;42.624;23.386;2023-02-23T07:10:20;8.60;;;7.23;;
7917;SDS011;4004;42.624;23.386;2023-02-23T07:12:47;10.43;;;7.43;;
7917;SDS011;4004;42.624;23.386;2023-02-23T07:15:14;13.10;;;7.70;;
7917;SDS011;4004;42.624;23.386;2023-02-23T07:17:41;11.80;;;7.17;;
7917;SDS011;4004;42.624;23.386;2023-02-23T07:20:09;12.23;;;8.30;;
7917;SDS011;4004;42.624;23.386;2023-02-23T07:22:37;13.47;;;8.90;;
7917;SDS011;4004;42.624;23.386;2023-02-23T07:25:06;16.80;;;11.40;;
7917;SDS011;4004;42.624;23.386;2023-02-23T07:27:33;21.00;;;10.77;;
7917;SDS011;4004;42.624;23.386;2023-02-23T07:30:00;14.53;;;9.53;;
7917;SDS011;4004;42.624;23.386;2023-02-23T07:32:27;21.80;;;11.47;;
7917;SDS011;4004;42.624;23.386;2023-02-23T07:34:54;20.90;;;11.07;;
7917;SDS011;4004;42.624;23.386;2023-02-23T07:37:21;21.47;;;13.30;;
7917;SDS011;4004;42.624;23.386;2023-02-23T07:39:47;18.23;;;11.93;;
7917;SDS011;4004;42.624;23.386;2023-02-23T07:42:15;16.40;;;12.07;;
7917;SDS011;4004;42.624;23.386;2023-02-23T07:44:43;19.67;;;11.43;;
7917;SDS011;4004;42.624;23.386;2023-02-23T07:47:09;20.17;;;11.47;;
7917;SDS011;4004;42.624;23.386;2023-02-23T07:49:37;18.17;;;10.40;;
7917;SDS011;4004;42.624;23.386;2023-02-23T07:52:03;25.00;;;11.33;;
7917;SDS011;4004;42.624;23.386;2023-02-23T07:54:30;19.43;;;11.87;;
7917;SDS011;4004;42.624;23.386;2023-02-23T07:56:57;17.60;;;11.37;;
7917;SDS011;4004;42.624;23.386;2023-02-23T07:59:25;21.67;;;11.20;;
7917;SDS011;4004;42.624;23.386;2023-02-23T08:01:52;21.60;;;11.10;;
7917;SDS011;4004;42.624;23.386;2023-02-23T08:04:19;27.73;;;11.50;;
7917;SDS011;4004;42.624;23.386;2023-02-23T08:06:46;31.67;;;11.57;;
7917;SDS011;4004;42.624;23.386;2023-02-23T08:09:13;47.93;;;11.63;;
7917;SDS011;4004;42.624;23.386;2023-02-23T08:11:39;32.07;;;11.90;;
7917;SDS011;4004;42.624;23.386;2023-02-23T08:14:06;28.00;;;10.90;;
7917;SDS011;4004;42.624;23.386;2023-02-23T08:16:36;20.83;;;10.67;;
7917;SDS011;4004;42.624;23.386;2023-02-23T08:19:02;15.17;;;10.23;;
7917;SDS011;4004;42.624;23.386;2023-02-23T08:21:30;17.70;;;10.90;;
7917;SDS011;4004;42.624;23.386;2023-02-23T08:23:57;22.83;;;11.30;;
7917;SDS011;4004;42.624;23.386;2023-02-23T08:26:24;21.37;;;10.33;;
7917;SDS011;4004;42.624;23.386;2023-02-23T08:28:52;17.50;;;9.70;;
7917;SDS011;4004;42.624;23.386;2023-02-23T08:31:19;13.67;;;10.10;;
7917;SDS011;4004;42.624;23.386;2023-02-23T08:33:48;15.60;;;8.57;;
7917;SDS011;4004;42.624;23.386;2023-02-23T08:36:15;15.47;;;9.23;;
7917;SDS011;4004;42.624;23.386;2023-02-23T08:38:42;11.80;;;9.70;;
7917;SDS011;4004;42.624;23.386;2023-02-23T08:41:09;14.73;;;10.43;;
7917;SDS011;4004;42.624;23.386;2023-02-23T08:43:36;19.03;;;9.77;;
7917;SDS011;4004;42.624;23.386;2023-02-23T08:46:03;21.93;;;10.70;;
7917;SDS011;4004;42.624;23.386;2023-02-23T08:48:30;12.37;;;9.57;;
7917;SDS011;4004;42.624;23.386;2023-02-23T08:50:59;14.37;;;9.93;;
7917;SDS011;4004;42.624;23.386;2023-02-23T08:53:26;15.50;;;11.03;;
7917;SDS011;4004;42.624;23.386;2023-02-23T08:55:54;14.37;;;10.73;;
7917;SDS011;4004;42.624;23.386;2023-02-23T08:58:22;15.10;;;10.17;;
7917;SDS011;4004;42.624;23.386;2023-02-23T09:00:49;15.80;;;10.70;;
7917;SDS011;4004;42.624;23.386;2023-02-23T09:03:16;18.40;;;11.77;;
7917;SDS011;4004;42.624;23.386;2023-02-23T09:05:43;20.93;;;10.47;;
7917;SDS011;4004;42.624;23.386;2023-02-23T09:08:11;17.27;;;10.50;;
7917;SDS011;4004;42.624;23.386;2023-02-23T09:10:39;17.57;;;10.37;;
7917;SDS011;4004;42.624;23.386;2023-02-23T09:13:08;20.03;;;10.50;;
7917;SDS011;4004;42.624;23.386;2023-02-23T09:15:35;16.50;;;9.90;;
7917;SDS011;4004;42.624;23.386;2023-02-23T09:18:03;17.00;;;11.20;;
7917;SDS011;4004;42.624;23.386;2023-02-23T09:20:29;19.20;;;10.67;;
7917;SDS011;4004;42.624;23.386;2023-02-23T09:22:56;17.57;;;10.07;;
7917;SDS011;4004;42.624;23.386;2023-02-23T09:25:25;16.83;;;9.77;;
7917;SDS011;4004;42.624;23.386;2023-02-23T09:27:53;14.47;;;10.20;;
7917;SDS011;4004;42.624;23.386;2023-02-23T09:30:22;12.07;;;9.87;;
7917;SDS011;4004;42.624;23.386;2023-02-23T09:32:49;14.93;;;10.30;;
7917;SDS011;4004;42.624;23.386;2023-02-23T09:35:17;17.63;;;9.90;;
7917;SDS011;4004;42.624;23.386;2023-02-23T09:37:45;18.50;;;9.23;;
7917;SDS011;4004;42.624;23.386;2023-02-23T09:40:13;13.47;;;8.83;;
7917;SDS011;4004;42.624;23.386;2023-02-23T09:42:44;11.60;;;8.63;;
7917;SDS011;4004;42.624;23.386;2023-02-23T09:45:21;12.57;;;9.00;;
7917;SDS011;4004;42.624;23.386;2023-02-23T09:48:01;11.10;;;8.10;;
7917;SDS011;4004;42.624;23.386;2023-02-23T09:50:34;16.30;;;8.73;;
7917;SDS011;4004;42.624;23.386;2023-02-23T09:53:05;16.17;;;9.40;;
7917;SDS011;4004;42.624;23.386;2023-02-23T09:55:37;13.90;;;8.33;;
7917;SDS011;4004;42.624;23.386;2023-02-23T09:58:12;10.57;;;7.43;;
7917;SDS011;4004;42.624;23.386;2023-02-23T10:00:47;14.37;;;8.30;;
7917;SDS011;4004;42.624;23.386;2023-02-23T10:03:19;9.50;;;6.90;;
7917;SDS011;4004;42.624;23.386;2023-02-23T10:05:53;12.37;;;6.80;;
7917;SDS011;4004;42.624;23.386;2023-02-23T10:08:29;13.77;;;8.60;;
7917;SDS011;4004;42.624;23.386;2023-02-23T10:11:09;13.87;;;7.80;;
7917;SDS011;4004;42.624;23.386;2023-02-23T10:13:45;17.73;;;7.57;;
7917;SDS011;4004;42.624;23.386;2023-02-23T10:16:20;19.73;;;8.87;;
7917;SDS011;4004;42.624;23.386;2023-02-23T10:18:51;10.07;;;7.83;;
7917;SDS011;4004;42.624;23.386;2023-02-23T10:21:26;8.67;;;6.87;;
7917;SDS011;4004;42.624;23.386;2023-02-23T10:24:00;11.13;;;7.40;;
7917;SDS011;4004;42.624;23.386;2023-02-23T10:26:32;15.00;;;7.10;;
7917;SDS011;4004;42.624;23.386;2023-02-23T10:29:06;19.00;;;7.27;;
7917;SDS011;4004;42.624;23.386;2023-02-23T10:31:45;12.60;;;7.97;;
7917;SDS011;4004;42.624;23.386;2023-02-23T10:34:15;12.90;;;5.97;;
7917;SDS011;4004;42.624;23.386;2023-02-23T10:36:43;15.37;;;7.73;;
7917;SDS011;4004;42.624;23.386;2023-02-23T10:39:17;17.90;;;8.63;;
7917;SDS011;4004;42.624;23.386;2023-02-23T10:41:44;13.33;;;8.27;;
7917;SDS011;4004;42.624;23.386;2023-02-23T10:44:16;18.03;;;7.80;;
7917;SDS011;4004;42.624;23.386;2023-02-23T10:46:45;18.13;;;7.77;;
7917;SDS011;4004;42.624;23.386;2023-02-23T10:49:17;12.37;;;8.00;;
7917;SDS011;4004;42.624;23.386;2023-02-23T10:51:46;14.23;;;7.03;;
7917;SDS011;4004;42.624;23.386;2023-02-23T10:57:08;11.57;;;6.33;;
7917;SDS011;4004;42.624;23.386;2023-02-23T10:59:40;13.87;;;7.03;;
7917;SDS011;4004;42.624;23.386;2023-02-23T11:02:23;14.93;;;6.70;;
7917;SDS011;4004;42.624;23.386;2023-02-23T11:04:52;8.27;;;5.77;;
7917;SDS011;4004;42.624;23.386;2023-02-23T11:07:22;7.50;;;5.97;;
7917;SDS011;4004;42.624;23.386;2023-02-23T11:09:53;9.40;;;5.87;;
7917;SDS011;4004;42.624;23.386;2023-02-23T11:12:21;8.83;;;5.93;;
7917;SDS011;4004;42.624;23.386;2023-02-23T11:14:52;8.47;;;6.30;;
7917;SDS011;4004;42.624;23.386;2023-02-23T11:17:24;10.17;;;6.50;;
7917;SDS011;4004;42.624;23.386;2023-02-23T11:19:56;7.87;;;6.10;;
7917;SDS011;4004;42.624;23.386;2023-02-23T11:22:29;10.03;;;6.90;;
7917;SDS011;4004;42.624;23.386;2023-02-23T11:24:59;10.93;;;6.77;;
7917;SDS011;4004;42.624;23.386;2023-02-23T11:27:30;12.27;;;7.37;;
7917;SDS011;4004;42.624;23.386;2023-02-23T11:29:58;13.47;;;9.23;;
7917;SDS011;4004;42.624;23.386;2023-02-23T11:32:31;15.87;;;9.07;;
7917;SDS011;4004;42.624;23.386;2023-02-23T11:37:55;14.13;;;7.97;;
7917;SDS011;4004;42.624;23.386;2023-02-23T11:40:23;20.07;;;11.30;;
7917;SDS011;4004;42.624;23.386;2023-02-23T11:42:52;14.10;;;9.70;;
7917;SDS011;4004;42.624;23.386;2023-02-23T11:45:22;16.67;;;9.33;;
7917;SDS011;4004;42.624;23.386;2023-02-23T11:47:52;14.53;;;8.30;;
7917;SDS011;4004;42.624;23.386;2023-02-23T11:50:23;9.97;;;6.53;;
7917;SDS011;4004;42.624;23.386;2023-02-23T11:52:54;9.70;;;6.87;;
7917;SDS011;4004;42.624;23.386;2023-02-23T11:55:25;9.23;;;6.37;;
7917;SDS011;4004;42.624;23.386;2023-02-23T11:58:05;8.07;;;6.10;;
7917;SDS011;4004;42.624;23.386;2023-02-23T12:00:35;7.70;;;5.50;;
7917;SDS011;4004;42.624;23.386;2023-02-23T12:03:02;9.57;;;6.47;;
7917;SDS011;4004;42.624;23.386;2023-02-23T12:05:31;11.20;;;6.77;;
7917;SDS011;4004;42.624;23.386;2023-02-23T12:08:00;8.37;;;5.47;;
7917;SDS011;4004;42.624;23.386;2023-02-23T12:10:32;9.00;;;5.80;;
7917;SDS011;4004;42.624;23.386;2023-02-23T12:13:10;13.90;;;6.50;;
7917;SDS011;4004;42.624;23.386;2023-02-23T12:15:47;7.97;;;6.60;;
7917;SDS011;4004;42.624;23.386;2023-02-23T12:18:24;8.30;;;6.53;;
7917;SDS011;4004;42.624;23.386;2023-02-23T12:21:12;12.97;;;7.53;;
7917;SDS011;4004;42.624;23.386;2023-02-23T12:23:43;11.07;;;7.77;;
7917;SDS011;4004;42.624;23.386;2023-02-23T12:26:13;11.00;;;6.67;;
7917;SDS011;4004;42.624;23.386;2023-02-23T12:28:45;11.57;;;7.20;;
7917;SDS011;4004;42.624;23.386;2023-02-23T12:31:21;8.87;;;7.43;;
7917;SDS011;4004;42.624;23.386;2023-02-23T12:33:52;9.47;;;7.10;;
7917;SDS011;4004;42.624;23.386;2023-02-23T12:36:25;8.67;;;6.03;;
7917;SDS011;4004;42.624;23.386;2023-02-23T12:39:00;7.73;;;5.90;;
7917;SDS011;4004;42.624;23.386;2023-02-23T12:41:34;8.93;;;6.50;;
7917;SDS011;4004;42.624;23.386;2023-02-23T12:44:08;10.70;;;7.30;;
7917;SDS011;4004;42.624;23.386;2023-02-23T12:46:41;9.07;;;6.53;;
7917;SDS011;4004;42.624;23.386;2023-02-23T12:49:15;14.10;;;7.73;;
7917;SDS011;4004;42.624;23.386;2023-02-23T12:51:49;16.23;;;6.77;;
7917;SDS011;4004;42.624;23.386;2023-02-23T12:54:20;10.43;;;6.93;;
7917;SDS011;4004;42.624;23.386;2023-02-23T12:56:49;14.33;;;7.60;;
7917;SDS011;4004;42.624;23.386;2023-02-23T13:02:32;10.40;;;6.37;;
7917;SDS011;4004;42.624;23.386;2023-02-23T13:05:08;8.33;;;5.27;;
7917;SDS011;4004;42.624;23.386;2023-02-23T13:07:42;11.83;;;5.80;;
7917;SDS011;4004;42.624;23.386;2023-02-23T13:10:21;17.90;;;6.37;;
7917;SDS011;4004;42.624;23.386;2023-02-23T13:12:55;8.87;;;5.67;;
7917;SDS011;4004;42.624;23.386;2023-02-23T13:15:34;18.50;;;7.33;;
7917;SDS011;4004;42.624;23.386;2023-02-23T13:18:14;15.33;;;6.90;;
7917;SDS011;4004;42.624;23.386;2023-02-23T13:20:49;8.47;;;5.87;;
7917;SDS011;4004;42.624;23.386;2023-02-23T13:23:21;8.37;;;5.63;;
7917;SDS011;4004;42.624;23.386;2023-02-23T13:25:56;7.97;;;5.23;;
7917;SDS011;4004;42.624;23.386;2023-02-23T13:28:39;7.20;;;5.37;;
7917;SDS011;4004;42.624;23.386;2023-02-23T13:31:19;6.40;;;5.37;;
7917;SDS011;4004;42.624;23.386;2023-02-23T13:33:50;11.63;;;6.13;;
7917;SDS011;4004;42.624;23.386;2023-02-23T13:36:21;11.00;;;5.63;;
7917;SDS011;4004;42.624;23.386;2023-02-23T13:38:54;12.20;;;6.70;;
7917;SDS011;4004;42.624;23.386;2023-02-23T13:41:35;8.93;;;5.60;;
7917;SDS011;4004;42.624;23.386;2023-02-23T13:44:06;11.40;;;5.67;;
7917;SDS011;4004;42.624;23.386;2023-02-23T13:46:46;11.07;;;5.53;;
7917;SDS011;4004;42.624;23.386;2023-02-23T13:49:21;7.93;;;5.23;;
7917;SDS011;4004;42.624;23.386;2023-02-23T13:51:58;18.70;;;6.33;;
7917;SDS011;4004;42.624;23.386;2023-02-23T13:54:30;5.57;;;4.93;;
7917;SDS011;4004;42.624;23.386;2023-02-23T13:56:58;7.13;;;5.03;;
7917;SDS011;4004;42.624;23.386;2023-02-23T13:59:27;6.70;;;4.33;;
7917;SDS011;4004;42.624;23.386;2023-02-23T14:02:06;6.00;;;4.97;;
7917;SDS011;4004;42.624;23.386;2023-02-23T14:04:49;10.10;;;4.60;;
7917;SDS011;4004;42.624;23.386;2023-02-23T14:07:17;7.73;;;4.80;;
7917;SDS011;4004;42.624;23.386;2023-02-23T14:09:52;6.10;;;4.77;;
7917;SDS011;4004;42.624;23.386;2023-02-23T14:12:22;8.30;;;4.47;;
7917;SDS011;4004;42.624;23.386;2023-02-23T14:14:51;5.73;;;4.27;;
7917;SDS011;4004;42.624;23.386;2023-02-23T14:17:37;8.10;;;4.63;;
7917;SDS011;4004;42.624;23.386;2023-02-23T14:20:16;5.80;;;4.63;;
7917;SDS011;4004;42.624;23.386;2023-02-23T14:25:52;12.60;;;5.30;;
7917;SDS011;4004;42.624;23.386;2023-02-23T14:28:35;7.23;;;5.10;;
7917;SDS011;4004;42.624;23.386;2023-02-23T14:31:05;10.00;;;4.80;;
7917;SDS011;4004;42.624;23.386;2023-02-23T14:33:48;10.00;;;5.10;;
7917;SDS011;4004;42.624;23.386;2023-02-23T14:39:14;13.40;;;4.97;;
7917;SDS011;4004;42.624;23.386;2023-02-23T14:41:46;8.90;;;4.57;;
7917;SDS011;4004;42.624;23.386;2023-02-23T14:44:16;5.90;;;4.97;;
7917;SDS011;4004;42.624;23.386;2023-02-23T14:46:47;7.27;;;5.23;;
7917;SDS011;4004;42.624;23.386;2023-02-23T14:49:19;5.10;;;4.60;;
7917;SDS011;4004;42.624;23.386;2023-02-23T14:51:50;5.50;;;4.87;;
7917;SDS011;4004;42.624;23.386;2023-02-23T14:54:21;10.43;;;5.30;;
7917;SDS011;4004;42.624;23.386;2023-02-23T14:56:51;8.00;;;5.23;;
7917;SDS011;4004;42.624;23.386;2023-02-23T14:59:21;11.43;;;5.33;;
7917;SDS011;4004;42.624;23.386;2023-02-23T15:01:51;8.80;;;5.67;;
7917;SDS011;4004;42.624;23.386;2023-02-23T15:04:19;9.63;;;5.70;;
7917;SDS011;4004;42.624;23.386;2023-02-23T15:06:50;11.80;;;6.07;;
7917;SDS011;4004;42.624;23.386;2023-02-23T15:09:21;8.87;;;6.73;;
7917;SDS011;4004;42.624;23.386;2023-02-23T15:11:55;7.37;;;5.83;;
7917;SDS011;4004;42.624;23.386;2023-02-23T15:14:24;8.73;;;5.87;;
7917;SDS011;4004;42.624;23.386;2023-02-23T15:16:51;10.67;;;6.60;;
7917;SDS011;4004;42.624;23.386;2023-02-23T15:19:18;9.30;;;6.80;;
7917;SDS011;4004;42.624;23.386;2023-02-23T15:21:51;9.93;;;6.60;;
7917;SDS011;4004;42.624;23.386;2023-02-23T15:24:20;10.10;;;6.57;;
7917;SDS011;4004;42.624;23.386;2023-02-23T15:26:51;9.80;;;6.40;;
7917;SDS011;4004;42.624;23.386;2023-02-23T15:29:19;12.50;;;6.63;;
7917;SDS011;4004;42.624;23.386;2023-02-23T15:31:48;9.87;;;6.47;;
7917;SDS011;4004;42.624;23.386;2023-02-23T15:34:16;8.00;;;5.97;;
7917;SDS011;4004;42.624;23.386;2023-02-23T15:36:49;8.10;;;6.90;;
7917;SDS011;4004;42.624;23.386;2023-02-23T15:39:27;6.83;;;6.13;;
7917;SDS011;4004;42.624;23.386;2023-02-23T15:42:01;7.50;;;6.10;;
7917;SDS011;4004;42.624;23.386;2023-02-23T15:44:29;8.10;;;6.73;;
7917;SDS011;4004;42.624;23.386;2023-02-23T15:46:58;12.60;;;6.93;;